Time;durP1;ratioP1;P1;durP2;ratioP2;P2;SDS_P1;SDS_P2;PMS_P1;PMS_P2;Temp;Humidity;BMP_temperature;BMP_pressure;BME280_temperature;BME280_humidity;BME280_pressure;Samples;Min_cycle;Max_cycle;Signal;HPM_P1;HPM_P2
2022/08/06 00:00:18;;;;;;;20.08;15.77;;;;;;;29.77;66.85;100613.25;5055665;28;69188;-32
2022/08/06 00:02:56;;;;;;;23.30;17.25;;;;;;;29.72;67.21;100611.19;5054548;28;65651;-33
2022/08/06 00:05:27;;;;;;;17.13;15.30;;;;;;;29.79;67.27;100630.91;5056366;28;69634;-32
2022/08/06 00:08:08;;;;;;;21.70;16.73;;;;;;;29.79;68.38;100624.69;5052235;28;66105;-33
2022/08/06 00:10:43;;;;;;;25.05;16.60;;;;;;;29.88;68.68;100646.88;5051099;28;69924;-33
2022/08/06 00:13:18;;;;;;;27.50;16.98;;;;;;;29.89;68.80;100662.03;5053673;28;66600;-34
2022/08/06 00:15:50;;;;;;;20.77;15.95;;;;;;;29.84;70.07;100712.22;5052984;28;72142;-32
2022/08/06 00:18:42;;;;;;;23.73;15.93;;;;;;;29.89;70.10;100716.13;5056174;28;66610;-32
2022/08/06 00:21:13;;;;;;;17.95;16.17;;;;;;;29.91;70.78;100716.75;5052774;28;70692;-30
2022/08/06 00:24:05;;;;;;;28.02;13.88;;;;;;;29.92;70.56;100727.38;5051280;27;66052;-32
2022/08/06 00:26:53;;;;;;;19.17;12.48;;;;;;;29.94;70.69;100735.25;5057579;28;69819;-32
2022/08/06 00:29:41;;;;;;;19.75;12.25;;;;;;;29.96;71.17;100743.97;5054896;28;65468;-31
2022/08/06 00:32:16;;;;;;;13.70;10.90;;;;;;;29.99;71.26;100744.34;5054228;28;70171;-31
2022/08/06 00:34:56;;;;;;;12.30;10.15;;;;;;;29.91;71.04;100730.28;5056462;28;66446;-32
2022/08/06 00:37:28;;;;;;;15.27;9.93;;;;;;;29.96;71.66;100739.38;5057918;28;69894;-31
2022/08/06 00:40:21;;;;;;;13.13;8.52;;;;;;;29.93;71.38;100744.41;5059664;28;65631;-32
2022/08/06 00:42:53;;;;;;;17.05;8.63;;;;;;;30.00;71.90;100739.78;5056397;28;70464;-30
2022/08/06 00:45:24;;;;;;;8.90;6.93;;;;;;;30.14;68.02;100741.34;5056668;28;66044;-32
2022/08/06 00:48:01;;;;;;;8.77;7.57;;;;;;;30.04;71.84;100735.59;5050823;28;69294;-29
2022/08/06 00:50:36;;;;;;;15.35;7.43;;;;;;;30.23;67.51;100734.66;5056487;28;65724;-29
2022/08/06 00:53:08;;;;;;;8.55;5.90;;;;;;;30.28;67.38;100725.88;5059690;28;69985;-28
2022/08/06 00:55:42;;;;;;;6.72;6.03;;;;;;;30.34;67.06;100718.75;5054946;28;65777;-29
2022/08/06 00:58:30;;;;;;;16.98;5.57;;;;;;;30.32;66.74;100710.88;5064295;28;69117;-29
2022/08/06 01:01:10;;;;;;;9.82;5.70;;;;;;;30.45;66.29;100720.72;5062787;28;66667;-29
2022/08/06 01:03:46;;;;;;;12.60;5.55;;;;;;;30.48;66.02;100725.72;5056755;28;70374;-30
2022/08/06 01:06:22;;;;;;;10.18;5.90;;;;;;;30.41;65.94;100703.28;5064901;28;66293;-30
2022/08/06 01:09:13;;;;;;;9.50;5.20;;;;;;;30.50;65.99;100723.59;5051471;28;70146;-29
2022/08/06 01:11:45;;;;;;;9.13;5.55;;;;;;;30.54;65.27;100729.44;5042743;28;66551;-29
2022/08/06 01:14:16;;;;;;;;;;;;;;;30.19;67.51;100735.28;5055635;28;70062;-29
2022/08/06 01:17:43;;;;;;;11.05;4.60;;;;;;;30.41;66.28;100741.19;5039735;28;67187;-28
2022/08/06 01:20:58;;;;;;;5.47;4.80;;;;;;;30.49;65.46;100749.03;5041102;28;69294;-29
2022/08/06 01:24:16;;;;;;;6.47;5.00;;;;;;;30.12;65.92;100705.59;5045614;28;65488;-29
2022/08/06 01:27:04;;;;;;;4.95;4.55;;;;;;;30.31;64.98;100713.78;5045609;28;70611;-30
2022/08/06 01:29:40;;;;;;;4.90;4.40;;;;;;;30.50;64.92;100745.25;5046873;28;66638;-29
2022/08/06 01:32:30;;;;;;;7.63;4.30;;;;;;;30.18;64.97;100702.00;5046183;28;70424;-29
2022/08/06 01:35:16;;;;;;;7.47;4.57;;;;;;;30.26;64.49;100695.53;5042959;28;65428;-29
2022/08/06 01:38:43;;;;;;;5.43;4.47;;;;;;;30.43;65.34;100755.34;5044082;28;70116;-29
2022/08/06 01:41:39;;;;;;;5.32;4.82;;;;;;;30.60;64.33;100764.56;5043447;28;66487;-29
2022/08/06 01:44:34;;;;;;;6.40;4.45;;;;;;;30.59;64.65;100765.63;5055568;28;69691;-29
2022/08/06 01:47:10;;;;;;;5.75;4.18;;;;;;;30.24;64.18;100706.53;5051931;28;66840;-29
2022/08/06 01:49:52;;;;;;;5.63;5.10;;;;;;;30.59;64.21;100771.03;5045601;28;69211;-28
2022/08/06 01:52:36;;;;;;;5.25;4.75;;;;;;;30.29;63.86;100732.97;5049342;28;65756;-29
2022/08/06 01:55:17;;;;;;;5.35;4.28;;;;;;;30.57;64.49;100777.72;5052201;28;69724;-28
2022/08/06 01:57:57;;;;;;;5.63;5.13;;;;;;;30.23;64.24;100718.44;5046624;28;65642;-29
2022/08/06 02:00:51;;;;;;;5.53;5.03;;;;;;;30.45;64.28;100753.22;5045432;28;69938;-28
2022/08/06 02:03:34;;;;;;;9.75;5.22;;;;;;;29.99;64.58;100689.44;5053784;28;65806;-28
2022/08/06 02:06:30;;;;;;;5.28;4.88;;;;;;;30.61;63.65;100790.56;5050832;28;70439;-28
2022/08/06 02:09:07;;;;;;;5.28;4.88;;;;;;;30.61;63.90;100795.97;5056280;28;65720;-28
2022/08/06 02:12:18;;;;;;;5.72;5.10;;;;;;;30.49;64.83;100792.34;5050878;28;70214;-29
2022/08/06 02:14:52;;;;;;;6.25;5.60;;;;;;;30.60;63.71;100794.34;5050255;28;65676;-28
2022/08/06 02:17:33;;;;;;;6.43;5.75;;;;;;;30.28;64.47;100756.50;5041739;28;70004;-29
2022/08/06 02:20:32;;;;;;;5.93;5.43;;;;;;;30.61;63.89;100806.81;5045735;28;66600;-29
2022/08/06 02:23:12;;;;;;;5.50;5.10;;;;;;;30.48;63.55;100779.88;5057523;28;70322;-29
2022/08/06 02:25:47;;;;;;;7.85;5.60;;;;;;;30.62;64.21;100797.66;5048810;28;66365;-29
2022/08/06 02:28:26;;;;;;;6.22;5.68;;;;;;;30.28;63.90;100748.38;5041956;28;69926;-29
2022/08/06 02:31:00;;;;;;;7.88;5.70;;;;;;;30.65;63.70;100801.81;5051610;28;66717;-29
2022/08/06 02:33:35;;;;;;;5.93;5.00;;;;;;;30.64;64.11;100795.53;5051553;28;69384;-28
2022/08/06 02:36:43;;;;;;;4.70;4.38;;;;;;;30.42;63.74;100759.94;5062997;28;65910;-29
2022/08/06 02:39:33;;;;;;;5.57;5.18;;;;;;;30.27;64.06;100741.28;5052582;28;69732;-28
2022/08/06 02:43:02;;;;;;;5.53;5.05;;;;;;;30.45;64.35;100793.81;5056845;28;66605;-29
2022/08/06 02:46:00;;;;;;;6.68;4.70;;;;;;;30.67;63.99;100795.13;5014390;28;70253;-28
2022/08/06 02:48:58;;;;;;;4.85;4.28;;;;;;;30.57;64.42;100794.78;5016960;28;67104;-30
2022/08/06 02:51:38;;;;;;;5.65;5.25;;;;;;;30.69;64.12;100782.16;5053860;28;70007;-29
2022/08/06 02:54:40;;;;;;;5.10;4.70;;;;;;;30.60;63.91;100767.25;5071125;28;66264;-28
2022/08/06 02:57:32;;;;;;;5.22;4.72;;;;;;;30.38;63.39;100722.69;5056595;28;70228;-29
2022/08/06 03:00:22;;;;;;;4.70;4.30;;;;;;;30.74;64.04;100776.09;5074643;28;66656;-29
2022/08/06 03:03:01;;;;;;;4.47;4.18;;;;;;;30.80;63.82;100777.13;5069551;28;70370;-27
2022/08/06 03:05:46;;;;;;;5.47;5.00;;;;;;;30.79;63.42;100759.19;5073810;28;65506;-32
2022/08/06 03:08:29;;;;;;;4.57;4.22;;;;;;;30.77;63.49;100755.88;5073331;28;69845;-29
2022/08/06 03:11:07;;;;;;;7.55;4.95;;;;;;;30.44;63.46;100692.84;5075428;28;65010;-27
2022/08/06 03:13:39;;;;;;;4.55;4.28;;;;;;;30.87;63.43;100761.63;5064355;28;70342;-30
2022/08/06 03:16:12;;;;;;;4.75;4.45;;;;;;;30.56;63.61;100706.47;5067357;28;65558;-28
2022/08/06 03:18:57;;;;;;;5.18;4.75;;;;;;;30.66;63.42;100712.22;5067425;28;70029;-31
2022/08/06 03:21:51;;;;;;;7.50;4.40;;;;;;;30.92;63.50;100743.69;5058464;28;65890;-30
2022/08/06 03:24:27;;;;;;;4.40;4.00;;;;;;;30.87;62.68;100731.81;5071802;27;70543;-29
2022/08/06 03:27:00;;;;;;;4.28;4.07;;;;;;;30.70;62.97;100697.19;5073852;28;66690;-29
2022/08/06 03:29:37;;;;;;;5.03;4.57;;;;;;;31.02;63.31;100737.72;5052224;28;70420;-30
2022/08/06 03:32:16;;;;;;;5.03;4.65;;;;;;;30.98;62.83;100725.69;5059525;27;66343;-29
2022/08/06 03:35:08;;;;;;;4.57;4.20;;;;;;;31.05;62.95;100726.44;5055210;28;70260;-29
2022/08/06 03:38:01;;;;;;;5.10;4.60;;;;;;;31.09;63.02;100722.25;5049760;28;66349;-30
2022/08/06 03:40:33;;;;;;;;;;;;;;;30.75;64.01;100726.28;5057672;28;70420;-29
2022/08/06 03:43:06;;;;;;;4.93;4.43;;;;;;;31.08;62.76;100731.41;5055819;28;66464;-27
2022/08/06 03:45:51;;;;;;;5.53;4.07;;;;;;;30.82;63.27;100672.13;5073264;28;70102;-29
2022/08/06 03:48:29;;;;;;;4.85;4.45;;;;;;;31.16;62.92;100728.41;5068942;27;65419;-28
2022/08/06 03:51:23;;;;;;;4.20;3.85;;;;;;;30.78;63.10;100666.28;5070554;28;70185;-30
2022/08/06 03:54:18;;;;;;;3.53;3.22;;;;;;;31.09;63.12;100699.72;5046273;28;65706;-29
2022/08/06 03:57:12;;;;;;;3.88;3.58;;;;;;;30.81;63.41;100657.72;5065356;28;69551;-30
2022/08/06 03:59:46;;;;;;;4.40;4.00;;;;;;;31.23;63.04;100716.66;5055548;28;65850;-30
2022/08/06 04:02:41;;;;;;;4.25;3.88;;;;;;;30.99;62.67;100659.63;5065928;28;70029;-29
2022/08/06 04:05:21;;;;;;;4.25;3.95;;;;;;;30.67;63.04;100600.19;5051096;28;66569;-30
2022/08/06 04:07:56;;;;;;;4.65;3.83;;;;;;;31.30;62.61;100695.72;5045988;27;70209;-29
2022/08/06 04:10:37;;;;;;;4.00;3.70;;;;;;;31.02;62.69;100640.22;5056446;28;66310;-30
2022/08/06 04:13:24;;;;;;;4.57;3.15;;;;;;;31.35;62.97;100693.16;5043614;28;69621;-30
2022/08/06 04:16:18;;;;;;;4.25;3.35;;;;;;;31.03;62.55;100631.00;5069598;28;66487;-29
2022/08/06 04:19:07;;;;;;;3.50;3.20;;;;;;;31.31;62.68;100673.81;5069746;28;71017;-29
2022/08/06 04:21:45;;;;;;;3.90;3.60;;;;;;;31.42;62.90;100677.66;5064660;28;66153;-29
2022/08/06 04:24:36;;;;;;;3.72;3.42;;;;;;;31.38;62.85;100662.91;5070839;28;70391;-28
2022/08/06 04:27:10;;;;;;;3.58;3.28;;;;;;;31.21;62.83;100634.78;5071775;27;67418;-29
2022/08/06 04:29:48;;;;;;;3.55;3.25;;;;;;;31.51;62.19;100673.59;5065189;28;69887;-28
2022/08/06 04:32:29;;;;;;;4.43;2.95;;;;;;;31.47;62.30;100658.81;5070520;27;66595;-29
2022/08/06 04:35:06;;;;;;;3.90;3.58;;;;;;;31.33;61.73;100624.81;5071825;28;70160;-29
2022/08/06 04:38:00;;;;;;;3.80;3.50;;;;;;;31.55;61.85;100653.09;5065132;28;65577;-29
2022/08/06 04:40:33;;;;;;;5.30;2.90;;;;;;;31.50;62.31;100631.25;5070535;28;70265;-29
2022/08/06 04:43:22;;;;;;;3.42;3.13;;;;;;;31.65;62.00;100646.28;5069834;27;65540;-29
2022/08/06 04:46:08;;;;;;;3.08;2.88;;;;;;;31.69;62.06;100647.47;5063926;28;70054;-29
2022/08/06 04:48:48;;;;;;;3.03;2.83;;;;;;;31.39;61.93;100589.50;5068484;28;67230;-29
2022/08/06 04:51:26;;;;;;;3.33;3.03;;;;;;;31.72;61.62;100630.75;5069067;28;69098;-29
2022/08/06 04:54:17;;;;;;;2.83;2.53;;;;;;;31.72;62.13;100623.41;5063227;28;66726;-28
2022/08/06 04:56:58;;;;;;;2.85;2.60;;;;;;;31.71;61.63;100615.53;5072553;28;69764;-29
2022/08/06 04:59:50;;;;;;;3.10;2.80;;;;;;;31.76;61.91;100624.63;5070003;28;66703;-28
2022/08/06 05:02:21;;;;;;;;;;;;;;;31.49;62.71;100629.63;5072657;28;70351;-29
2022/08/06 05:04:57;;;;;;;2.65;2.45;;;;;;;31.82;61.71;100617.44;5064645;28;65234;-28
2022/08/06 05:07:32;;;;;;;4.68;2.60;;;;;;;31.57;61.52;100560.69;5070599;27;70060;-29
2022/08/06 05:10:26;;;;;;;2.70;2.50;;;;;;;31.93;61.47;100608.53;5054474;28;66088;-30
2022/08/06 05:12:59;;;;;;;4.50;2.55;;;;;;;31.76;61.19;100569.53;5071490;28;70200;-29
2022/08/06 05:15:42;;;;;;;3.28;2.80;;;;;;;31.99;61.17;100618.44;5057015;28;66923;-28
2022/08/06 05:18:28;;;;;;;2.63;2.42;;;;;;;32.01;61.39;100616.31;5056809;28;70535;-30
2022/08/06 05:21:28;;;;;;;2.80;2.60;;;;;;;31.75;61.18;100562.47;5074788;28;65729;-30
2022/08/06 05:24:19;;;;;;;2.38;2.17;;;;;;;32.04;61.55;100601.47;5059418;27;71036;-28
2022/08/06 05:27:11;;;;;;;3.05;2.47;;;;;;;31.92;61.38;100571.59;5059276;28;66516;-29
2022/08/06 05:29:45;;;;;;;2.33;2.13;;;;;;;32.09;61.19;100596.13;5059975;28;71288;-30
2022/08/06 05:32:23;;;;;;;2.42;2.28;;;;;;;32.08;61.04;100594.50;5060955;28;66561;-29
2022/08/06 05:34:56;;;;;;;3.03;2.25;;;;;;;32.12;61.37;100590.22;5074637;27;69463;-30
2022/08/06 05:37:27;;;;;;;2.90;2.30;;;;;;;32.13;61.15;100591.09;5069699;28;66318;-28
2022/08/06 05:40:19;;;;;;;2.50;2.30;;;;;;;32.15;61.17;100591.66;5068349;27;70275;-31
2022/08/06 05:43:03;;;;;;;2.85;2.28;;;;;;;32.18;60.99;100583.03;5073845;27;65555;-30
2022/08/06 05:45:36;;;;;;;2.40;2.20;;;;;;;32.18;61.17;100573.03;5068390;28;70169;-28
2022/08/06 05:48:11;;;;;;;3.70;2.10;;;;;;;31.84;61.15;100512.22;5071454;28;66576;-28
2022/08/06 05:51:21;;;;;;;1.90;1.80;;;;;;;32.10;61.63;100569.84;5073190;28;70219;-30
2022/08/06 05:54:48;;;;;;;3.90;2.03;;;;;;;32.02;61.17;100552.03;5059027;28;66594;-29
2022/08/06 05:57:29;;;;;;;2.35;2.15;;;;;;;32.19;61.32;100568.44;5055514;28;69874;-29
2022/08/06 06:00:17;;;;;;;2.45;2.08;;;;;;;32.16;61.26;100563.47;5068142;28;65405;-30
2022/08/06 06:03:12;;;;;;;3.03;1.67;;;;;;;31.91;61.25;100518.41;5067075;28;69399;-29
2022/08/06 06:06:00;;;;;;;2.00;1.75;;;;;;;31.95;61.08;100530.44;5066739;27;65332;-28
2022/08/06 06:08:46;;;;;;;1.70;1.60;;;;;;;32.15;61.47;100556.38;5056460;28;70616;-29
2022/08/06 06:11:28;;;;;;;2.72;2.13;;;;;;;32.23;61.01;100569.59;5069582;28;65546;-32
2022/08/06 06:14:33;;;;;;;3.60;2.22;;;;;;;32.24;60.96;100565.84;5059466;27;70313;-28
2022/08/06 06:17:40;;;;;;;3.10;1.85;;;;;;;32.21;61.16;100571.75;5057979;28;66546;-29
2022/08/06 06:20:30;;;;;;;3.42;2.08;;;;;;;32.22;61.42;100562.53;5050522;28;69158;-29
2022/08/06 06:23:28;;;;;;;2.60;2.10;;;;;;;32.24;60.97;100549.53;5057061;28;65413;-29
2022/08/06 06:26:23;;;;;;;2.03;1.83;;;;;;;32.26;61.04;100541.97;5072657;27;70092;-30
2022/08/06 06:29:35;;;;;;;2.40;2.20;;;;;;;32.21;61.01;100544.59;5073772;28;65736;-29
2022/08/06 06:32:46;;;;;;;3.50;2.17;;;;;;;32.21;60.95;100545.41;5070112;28;70515;-28
2022/08/06 06:35:39;;;;;;;2.78;1.90;;;;;;;32.22;60.95;100535.38;5070346;27;65456;-30
2022/08/06 06:38:32;;;;;;;3.00;1.80;;;;;;;32.16;61.14;100525.47;5075459;28;70447;-29
2022/08/06 06:41:26;;;;;;;2.38;2.10;;;;;;;32.22;61.00;100535.38;5054208;28;66062;-28
2022/08/06 06:44:17;;;;;;;3.53;2.28;;;;;;;32.33;60.75;100531.81;5073815;28;70482;-29
2022/08/06 06:47:19;;;;;;;2.63;2.03;;;;;;;32.02;60.71;100476.88;5071410;28;66501;-29
2022/08/06 06:50:11;;;;;;;2.33;1.90;;;;;;;32.22;60.49;100502.81;5060579;27;70017;-29
2022/08/06 06:52:49;;;;;;;2.30;2.10;;;;;;;32.11;61.00;100468.38;5063535;27;66002;-30
2022/08/06 06:55:35;;;;;;;5.38;2.42;;;;;;;32.34;60.76;100517.19;5056839;28;70243;-30
2022/08/06 06:59:03;;;;;;;2.08;1.90;;;;;;;32.31;60.88;100517.66;5054110;28;65349;-29
2022/08/06 07:01:48;;;;;;;2.67;2.47;;;;;;;32.22;60.80;100483.81;5051825;28;70180;-30
2022/08/06 07:04:27;;;;;;;2.58;2.20;;;;;;;32.42;60.75;100502.41;5059000;28;66135;-29
2022/08/06 07:07:01;;;;;;;3.33;2.17;;;;;;;32.44;60.72;100506.53;5047123;28;69892;-30
2022/08/06 07:09:44;;;;;;;2.30;2.10;;;;;;;32.36;60.69;100473.53;5056915;28;66484;-29
2022/08/06 07:12:32;;;;;;;2.88;2.05;;;;;;;31.88;60.67;100404.13;5056904;28;70503;-30
2022/08/06 07:15:09;;;;;;;3.15;2.10;;;;;;;32.42;60.57;100481.50;5047479;28;66340;-29
2022/08/06 07:17:50;;;;;;;2.47;2.05;;;;;;;32.47;60.85;100484.38;5060354;28;70190;-29
2022/08/06 07:20:44;;;;;;;2.05;1.85;;;;;;;32.51;60.66;100489.31;5058595;27;66371;-30
2022/08/06 07:23:18;;;;;;;2.47;1.92;;;;;;;32.52;60.65;100490.97;5052149;28;69922;-29
2022/08/06 07:26:12;;;;;;;2.45;1.80;;;;;;;32.27;60.76;100443.22;5054942;28;66511;-30
2022/08/06 07:28:45;;;;;;;4.07;2.05;;;;;;;32.53;60.53;100482.59;5055046;28;70171;-30
2022/08/06 07:31:18;;;;;;;1.98;1.65;;;;;;;32.56;60.60;100481.28;5046268;28;65976;-30
2022/08/06 07:33:52;;;;;;;4.47;2.00;;;;;;;32.57;60.65;100472.06;5054451;28;70106;-29
2022/08/06 07:36:39;;;;;;;2.35;1.70;;;;;;;32.23;60.59;100420.31;5053287;28;65665;-29
2022/08/06 07:39:35;;;;;;;3.22;1.85;;;;;;;32.54;60.55;100467.09;5051653;28;69316;-29
2022/08/06 07:42:13;;;;;;;4.25;1.98;;;;;;;32.56;60.67;100462.28;5054133;28;65232;-29
2022/08/06 07:44:51;;;;;;;2.95;1.88;;;;;;;32.29;62.04;100449.25;5059594;28;70243;-31
2022/08/06 07:47:30;;;;;;;4.50;2.50;;;;;;;32.16;63.48;100453.03;5058450;28;65337;-29
2022/08/06 07:50:16;;;;;;;6.90;2.30;;;;;;;32.25;62.75;100431.78;5046658;28;69768;-29
2022/08/06 07:52:55;;;;;;;5.10;2.20;;;;;;;32.13;62.67;100406.56;5041963;28;65704;-28
2022/08/06 07:55:28;;;;;;;9.00;2.40;;;;;;;32.40;62.48;100440.22;5047232;28;69987;-29
2022/08/06 07:58:11;;;;;;;21.17;3.08;;;;;;;32.36;62.83;100433.63;5053652;28;65480;-28
2022/08/06 08:00:48;;;;;;;18.88;2.60;;;;;;;32.47;62.71;100435.50;5065548;28;70006;-29
2022/08/06 08:06:29;;;;;;;17.23;3.22;;;;;;;32.57;62.57;100417.75;5066064;28;70176;-29
2022/08/06 08:09:09;;;;;;;11.90;2.30;;;;;;;32.54;62.33;100410.94;5077710;28;65882;-29
2022/08/06 08:11:46;;;;;;;13.48;2.53;;;;;;;32.34;62.75;100369.78;5072337;28;69895;-30
2022/08/06 08:14:39;;;;;;;8.25;2.58;;;;;;;32.30;62.39;100353.16;5051699;28;65691;-30
2022/08/06 08:17:19;;;;;;;4.57;2.72;;;;;;;32.65;62.52;100411.94;5051705;28;69848;-28
2022/08/06 08:20:06;;;;;;;9.45;2.67;;;;;;;32.60;62.65;100401.00;5054017;28;65967;-29
2022/08/06 08:22:46;;;;;;;4.53;2.35;;;;;;;32.64;62.64;100407.56;5053644;28;70486;-30
2022/08/06 08:25:20;;;;;;;12.55;2.78;;;;;;;32.67;62.44;100398.94;5054372;28;66457;-30
2022/08/06 08:28:12;;;;;;;8.60;2.33;;;;;;;32.69;62.75;100415.81;5052647;28;69356;-30
2022/08/06 08:30:46;;;;;;;6.75;2.40;;;;;;;32.71;62.60;100402.84;5051882;28;65398;-30
2022/08/06 08:33:21;;;;;;;2.97;2.20;;;;;;;32.71;62.54;100395.50;5053964;28;69410;-29
2022/08/06 08:35:56;;;;;;;6.68;2.72;;;;;;;32.72;62.35;100396.31;5057496;28;66340;-30
2022/08/06 08:38:31;;;;;;;9.60;2.22;;;;;;;32.38;62.47;100338.38;5057567;28;70108;-29
2022/08/06 08:41:25;;;;;;;5.03;2.63;;;;;;;32.65;62.72;100393.78;5072077;27;66152;-29
2022/08/06 08:44:24;;;;;;;13.02;3.03;;;;;;;32.41;62.45;100327.84;5060282;28;69487;-29
2022/08/06 08:46:58;;;;;;;2.97;2.42;;;;;;;32.57;61.80;100379.72;5073279;28;65692;-29
2022/08/06 08:50:03;;;;;;;13.05;3.45;;;;;;;32.56;62.72;100383.53;5059325;27;70373;-31
2022/08/06 08:52:40;;;;;;;9.65;2.60;;;;;;;32.30;64.10;100372.16;5070563;27;65558;-29
2022/08/06 08:55:15;;;;;;;8.98;2.65;;;;;;;32.29;64.17;100389.53;5057863;28;70096;-30
2022/08/06 08:58:07;;;;;;;3.80;2.28;;;;;;;32.21;64.58;100390.72;5057232;28;66432;-28
2022/08/06 09:00:59;;;;;;;11.95;3.30;;;;;;;32.28;63.98;100388.69;5053489;28;69632;-29
2022/08/06 09:03:34;;;;;;;4.97;2.60;;;;;;;31.80;63.51;100285.97;5064100;28;65859;-29
2022/08/06 09:06:17;;;;;;;5.78;2.85;;;;;;;32.53;63.20;100394.88;5060600;28;70494;-30
2022/08/06 09:09:03;;;;;;;4.22;2.78;;;;;;;32.59;63.07;100396.63;5062270;28;66725;-29
2022/08/06 09:11:36;;;;;;;3.50;2.30;;;;;;;32.65;63.03;100392.91;5063012;27;70237;-31
2022/08/06 09:14:28;;;;;;;3.83;2.88;;;;;;;32.66;62.47;100389.16;5065797;28;65825;-29
2022/08/06 09:17:04;;;;;;;6.40;2.70;;;;;;;32.74;62.29;100396.91;5065688;28;70408;-30
2022/08/06 09:19:42;;;;;;;5.93;2.58;;;;;;;32.77;62.27;100385.53;5060277;28;66402;-28
2022/08/06 09:22:14;;;;;;;3.97;2.97;;;;;;;32.72;62.03;100371.88;5061255;28;69252;-30
2022/08/06 09:24:52;;;;;;;3.70;2.83;;;;;;;32.78;61.90;100380.94;5059597;28;66276;-29
2022/08/06 09:27:32;;;;;;;4.25;2.67;;;;;;;32.81;61.93;100378.53;5056864;27;70227;-30
2022/08/06 09:30:26;;;;;;;5.18;2.40;;;;;;;32.90;61.60;100390.66;5056237;28;66869;-29
2022/08/06 09:32:59;;;;;;;7.45;2.70;;;;;;;32.93;61.63;100390.19;5051264;28;69692;-30
2022/08/06 09:35:33;;;;;;;3.28;2.05;;;;;;;32.96;61.67;100398.88;5062023;28;65428;-30
2022/08/06 09:38:15;;;;;;;3.72;2.60;;;;;;;32.62;61.73;100342.63;5063188;28;69261;-29
2022/08/06 09:41:08;;;;;;;3.00;2.50;;;;;;;32.50;62.38;100379.91;5056585;28;66336;-29
2022/08/06 09:43:50;;;;;;;5.07;2.78;;;;;;;32.18;62.76;100327.94;5059710;28;70651;-29
2022/08/06 09:46:44;;;;;;;4.38;3.03;;;;;;;32.38;63.36;100388.06;5057733;28;66459;-29
2022/08/06 09:49:19;;;;;;;4.20;2.97;;;;;;;32.36;64.05;100390.19;5059464;28;70137;-29
2022/08/06 09:52:15;;;;;;;6.05;2.53;;;;;;;32.05;64.38;100335.31;5063076;28;66716;-30
2022/08/06 09:54:48;;;;;;;3.53;3.22;;;;;;;32.17;64.60;100364.31;5059326;28;70277;-29
2022/08/06 09:57:23;;;;;;;4.55;3.17;;;;;;;31.99;64.82;100340.91;5054347;28;66348;-29
2022/08/06 10:00:06;;;;;;;3.42;3.20;;;;;;;32.23;66.27;100385.91;5057284;28;69895;-30
2022/08/06 10:02:45;;;;;;;5.85;4.00;;;;;;;32.22;66.87;100388.84;5054301;28;66268;-31
2022/08/06 10:05:23;;;;;;;4.82;3.58;;;;;;;31.98;66.86;100356.38;5061282;28;69598;-31
2022/08/06 10:08:10;;;;;;;4.40;4.00;;;;;;;32.20;67.50;100399.09;5058892;28;65544;-30
2022/08/06 10:10:47;;;;;;;3.85;3.55;;;;;;;32.23;67.57;100398.63;5055802;28;69168;-31
2022/08/06 10:13:26;;;;;;;6.28;3.65;;;;;;;32.24;67.52;100400.28;5054310;28;65812;-30
2022/08/06 10:16:26;;;;;;;5.82;3.58;;;;;;;32.20;67.81;100396.38;5062052;28;69434;-32
2022/08/06 10:19:00;;;;;;;10.82;3.85;;;;;;;32.20;67.62;100397.19;5050290;28;66167;-31
2022/08/06 10:21:48;;;;;;;9.95;4.22;;;;;;;32.37;66.51;100399.16;5060687;28;70463;-30
2022/08/06 10:24:20;;;;;;;4.47;3.85;;;;;;;32.42;65.89;100391.94;5071580;28;65284;-30
2022/08/06 10:27:14;;;;;;;4.63;3.60;;;;;;;32.54;65.45;100399.22;5068366;27;69967;-30
2022/08/06 10:29:52;;;;;;;11.35;3.72;;;;;;;32.46;65.07;100382.28;5073007;28;66006;-31
2022/08/06 10:32:51;;;;;;;9.10;4.10;;;;;;;32.64;64.86;100411.09;5055975;28;70634;-31
2022/08/06 10:35:26;;;;;;;4.47;4.07;;;;;;;32.78;64.41;100425.22;5053526;28;65304;-31
2022/08/06 10:38:03;;;;;;;10.43;4.05;;;;;;;32.83;64.00;100428.03;5058080;28;69654;-29
2022/08/06 10:40:47;;;;;;;7.32;3.50;;;;;;;32.87;64.16;100429.16;5056866;28;66808;-29
2022/08/06 10:43:29;;;;;;;5.80;3.72;;;;;;;32.66;63.71;100384.53;5056751;28;70521;-31
2022/08/06 10:46:08;;;;;;;5.93;4.07;;;;;;;32.90;63.93;100430.56;5056633;28;65715;-30
2022/08/06 10:48:44;;;;;;;6.10;3.90;;;;;;;32.93;63.55;100439.09;5056980;28;69727;-31
2022/08/06 10:51:37;;;;;;;7.35;4.22;;;;;;;32.66;63.65;100394.59;5057682;28;66187;-31
2022/08/06 10:54:27;;;;;;;5.75;3.83;;;;;;;32.86;63.35;100432.97;5056092;28;69961;-31
2022/08/06 10:57:00;;;;;;;5.57;3.90;;;;;;;32.96;63.52;100437.78;5058877;28;66017;-31
2022/08/06 10:59:35;;;;;;;6.93;3.70;;;;;;;32.97;63.26;100438.59;5054826;28;69164;-31
2022/08/06 11:02:37;;;;;;;5.50;3.05;;;;;;;32.94;63.29;100439.91;5053636;28;66445;-30
2022/08/06 11:05:24;;;;;;;8.60;4.20;;;;;;;32.65;63.27;100398.34;5049924;28;69960;-30
2022/08/06 11:08:13;;;;;;;5.82;3.63;;;;;;;32.89;63.10;100443.34;5043849;28;66512;-30
2022/08/06 11:11:38;;;;;;;13.27;4.70;;;;;;;32.85;63.06;100453.06;5044945;28;70584;-31
2022/08/06 11:14:11;;;;;;;6.82;3.67;;;;;;;32.85;63.16;100430.50;5058168;28;66097;-30
2022/08/06 11:16:58;;;;;;;8.38;3.60;;;;;;;32.84;62.83;100443.25;5058422;28;70235;-31
2022/08/06 11:19:47;;;;;;;4.18;3.70;;;;;;;32.60;62.94;100422.72;5057625;28;66654;-31
2022/08/06 11:22:36;;;;;;;3.83;3.35;;;;;;;32.59;62.69;100399.34;5058864;28;70583;-30
2022/08/06 11:25:44;;;;;;;7.95;3.95;;;;;;;32.83;62.78;100454.38;5058058;28;66342;-31
2022/08/06 11:28:19;;;;;;;4.93;3.45;;;;;;;32.89;63.01;100454.22;5059812;28;70065;-30
2022/08/06 11:30:53;;;;;;;5.45;3.50;;;;;;;32.85;62.80;100460.38;5072093;27;65326;-30
2022/08/06 11:33:36;;;;;;;4.00;3.70;;;;;;;32.86;63.09;100470.19;5074570;27;69814;-31
2022/08/06 11:36:12;;;;;;;5.55;3.63;;;;;;;32.64;62.85;100440.16;5057874;28;65527;-31
2022/08/06 11:38:48;;;;;;;8.23;3.42;;;;;;;32.89;62.97;100481.38;5073010;28;70372;-30
2022/08/06 11:41:33;;;;;;;4.30;3.90;;;;;;;32.87;62.94;100483.50;5075435;27;65729;-30
2022/08/06 11:44:32;;;;;;;6.07;4.35;;;;;;;32.87;62.69;100478.06;5069807;28;69462;-31
2022/08/06 11:47:20;;;;;;;4.45;4.05;;;;;;;32.66;63.13;100470.63;5075358;28;66226;-31
2022/08/06 11:50:23;;;;;;;6.47;4.60;;;;;;;31.84;65.31;100395.59;5055317;28;69342;-33
2022/08/06 11:52:56;;;;;;;9.32;4.50;;;;;;;32.37;65.72;100494.97;5056426;28;66024;-30
2022/08/06 11:55:28;;;;;;;16.05;4.55;;;;;;;32.29;66.59;100492.66;5056761;28;70288;-32
2022/08/06 11:58:19;;;;;;;8.35;4.57;;;;;;;32.23;66.81;100497.16;5058678;28;66251;-32
2022/08/06 12:01:01;;;;;;;10.68;5.00;;;;;;;32.18;67.14;100496.19;5059080;28;69627;-32
2022/08/06 12:03:52;;;;;;;20.65;4.88;;;;;;;32.12;67.75;100497.97;5052764;28;66152;-32
2022/08/06 12:06:25;;;;;;;9.27;5.13;;;;;;;32.11;67.68;100506.38;5054644;28;69519;-33
2022/08/06 12:09:13;;;;;;;6.43;4.45;;;;;;;32.04;67.78;100512.75;5050358;28;66140;-32
2022/08/06 12:12:28;;;;;;;9.48;5.13;;;;;;;32.01;67.96;100526.78;5055974;28;70436;-33
2022/08/06 12:15:22;;;;;;;6.13;5.18;;;;;;;32.10;67.65;100526.44;5053490;28;65743;-32
2022/08/06 12:18:14;;;;;;;5.18;4.57;;;;;;;32.08;68.15;100533.97;5056719;28;70319;-33
2022/08/06 12:20:55;;;;;;;;;;;;;;;31.77;69.03;100533.25;5058047;28;65576;-33
2022/08/06 12:23:29;;;;;;;7.03;5.07;;;;;;;31.82;68.54;100503.53;5054400;28;70297;-32
2022/08/06 12:26:21;;;;;;;5.30;4.90;;;;;;;32.04;68.57;100539.88;5062496;28;66815;-32
2022/08/06 12:29:06;;;;;;;7.53;5.07;;;;;;;32.05;68.92;100546.13;5068555;28;71213;-32
2022/08/06 12:31:39;;;;;;;5.03;4.63;;;;;;;31.72;69.44;100498.69;5062620;28;67217;-32
2022/08/06 12:34:29;;;;;;;10.80;5.35;;;;;;;32.01;69.77;100540.34;5058851;28;70512;-33
2022/08/06 12:37:00;;;;;;;;;;;;;;;31.75;70.67;100530.75;5054611;28;66358;-32
2022/08/06 12:42:30;;;;;;;8.50;5.10;;;;;;;32.04;69.77;100536.34;5066742;28;65793;-33
2022/08/06 12:45:26;;;;;;;6.78;5.40;;;;;;;32.02;70.23;100542.00;5069370;28;70205;-32
2022/08/06 12:48:17;;;;;;;7.10;5.57;;;;;;;32.03;69.93;100549.06;5057271;28;65011;-33
2022/08/06 12:50:49;;;;;;;9.35;5.40;;;;;;;31.98;69.68;100543.53;5066635;27;69521;-33